createdAt,value
2022-11-22T00:01:02.213Z,976.53
2022-11-22T00:06:06.343Z,976.61
2022-11-22T00:11:10.538Z,976.52
2022-11-22T00:16:14.709Z,976.43
2022-11-22T00:21:18.849Z,976.36
2022-11-22T00:26:23.006Z,976.17
2022-11-22T00:31:27.167Z,976.14
2022-11-22T00:36:31.361Z,975.75
2022-11-22T00:41:35.525Z,975.81
2022-11-22T00:46:39.679Z,975.78
2022-11-22T00:51:43.836Z,975.51
2022-11-22T00:56:48.013Z,975.55
2022-11-22T01:01:52.143Z,975.67
2022-11-22T01:06:56.300Z,975.56
2022-11-22T01:12:00.510Z,975.50
2022-11-22T01:17:04.637Z,975.48
2022-11-22T01:22:08.784Z,975.27
2022-11-22T01:27:12.975Z,975.32
2022-11-22T01:32:17.135Z,975.19
2022-11-22T01:37:21.280Z,975.06
2022-11-22T01:42:25.444Z,974.95
2022-11-22T01:47:29.596Z,974.77
2022-11-22T01:52:33.770Z,974.54
2022-11-22T01:57:37.957Z,974.55
2022-11-22T02:02:42.132Z,974.52
2022-11-22T02:07:46.410Z,974.58
2022-11-22T02:12:50.450Z,974.57
2022-11-22T02:17:54.588Z,974.77
2022-11-22T02:22:58.748Z,974.83
2022-11-22T02:28:02.926Z,974.71
2022-11-22T02:33:07.093Z,974.68
2022-11-22T02:38:11.223Z,974.82
2022-11-22T02:43:15.567Z,974.91
2022-11-22T02:48:19.549Z,974.94
2022-11-22T02:53:23.761Z,975.09
2022-11-22T02:58:27.892Z,975.07
2022-11-22T03:03:32.057Z,975.17
2022-11-22T03:08:36.419Z,975.22
2022-11-22T03:13:40.429Z,975.21
2022-11-22T03:18:44.672Z,975.21
2022-11-22T03:23:46.813Z,975.16
2022-11-22T03:28:50.984Z,975.16
2022-11-22T03:33:55.252Z,975.31
2022-11-22T03:38:59.295Z,975.40
2022-11-22T03:44:03.490Z,975.58
2022-11-22T03:49:07.616Z,975.51
2022-11-22T03:54:11.797Z,975.64
2022-11-22T03:59:15.931Z,975.68
2022-11-22T04:04:20.156Z,975.56
2022-11-22T04:09:24.365Z,975.60
2022-11-22T04:14:28.532Z,975.69
2022-11-22T04:19:32.900Z,975.70
2022-11-22T04:24:36.784Z,975.62
2022-11-22T04:29:40.947Z,975.59
2022-11-22T04:34:45.108Z,975.47
2022-11-22T04:39:49.241Z,975.42
2022-11-22T04:44:53.428Z,975.45
2022-11-22T04:49:57.603Z,975.49
2022-11-22T04:55:01.784Z,975.47
2022-11-22T05:00:05.951Z,975.46
2022-11-22T05:05:10.072Z,975.48
2022-11-22T05:10:14.206Z,975.46
2022-11-22T05:15:18.405Z,975.47
2022-11-22T05:20:22.534Z,975.50
2022-11-22T05:25:26.735Z,975.57
2022-11-22T05:30:30.894Z,975.59
2022-11-22T05:35:35.012Z,975.63
2022-11-22T05:40:39.227Z,975.67
2022-11-22T05:45:43.372Z,975.78
2022-11-22T05:50:47.544Z,975.69
2022-11-22T05:55:51.727Z,975.79
2022-11-22T06:00:55.864Z,975.92
2022-11-22T06:06:00.034Z,976.05
2022-11-22T06:11:04.168Z,976.12
2022-11-22T06:16:08.373Z,976.12
2022-11-22T06:21:12.506Z,976.18
2022-11-22T06:26:16.700Z,976.37
2022-11-22T06:31:20.834Z,976.42
2022-11-22T06:36:24.991Z,976.55
2022-11-22T06:41:29.163Z,976.62
2022-11-22T06:46:33.331Z,976.67
2022-11-22T06:51:37.556Z,976.73
2022-11-22T06:56:41.675Z,976.75
2022-11-22T07:01:45.877Z,976.87
2022-11-22T07:06:49.977Z,977.05
2022-11-22T07:11:54.158Z,977.23
2022-11-22T07:16:58.349Z,977.41
2022-11-22T07:22:02.484Z,977.65
2022-11-22T07:27:06.650Z,977.86
2022-11-22T07:32:10.818Z,977.97
2022-11-22T07:37:14.972Z,978.22
2022-11-22T07:42:23.669Z,978.43
2022-11-22T07:47:23.345Z,978.59
2022-11-22T07:52:27.449Z,978.69
2022-11-22T07:57:31.623Z,978.94
2022-11-22T08:02:35.772Z,979.21
2022-11-22T08:07:40.080Z,979.41
2022-11-22T08:12:44.136Z,979.43
2022-11-22T08:17:48.279Z,979.36
2022-11-22T08:22:52.448Z,979.44
2022-11-22T08:27:56.613Z,979.54
2022-11-22T08:33:00.790Z,979.61
2022-11-22T08:38:04.966Z,979.58
2022-11-22T08:43:09.099Z,979.57
2022-11-22T08:48:17.667Z,979.64
2022-11-22T08:53:15.555Z,979.73
2022-11-22T08:58:19.695Z,979.92
2022-11-22T09:03:23.865Z,980.09
2022-11-22T09:08:30.174Z,980.30
2022-11-22T09:13:32.301Z,980.57
2022-11-22T09:18:36.332Z,980.64
2022-11-22T09:23:40.517Z,980.80
2022-11-22T09:28:44.662Z,981.07
2022-11-22T09:33:48.835Z,981.23
2022-11-22T09:38:53.015Z,981.41
2022-11-22T09:43:57.144Z,981.35
2022-11-22T09:49:01.302Z,981.41
2022-11-22T09:54:05.496Z,981.37
2022-11-22T09:59:09.676Z,981.54
2022-11-22T10:04:13.812Z,981.71
2022-11-22T10:09:17.956Z,981.77
2022-11-22T10:14:22.123Z,981.79
2022-11-22T10:19:26.269Z,981.84
2022-11-22T10:24:30.480Z,981.92
2022-11-22T10:29:34.649Z,981.94
2022-11-22T10:34:38.742Z,981.92
2022-11-22T10:39:42.913Z,982.07
2022-11-22T10:44:47.088Z,981.76
2022-11-22T10:49:51.297Z,981.75
2022-11-22T10:54:55.419Z,981.64
2022-11-22T10:59:59.576Z,981.58
2022-11-22T11:05:03.763Z,981.51
2022-11-22T11:10:13.598Z,981.53
2022-11-22T11:15:12.089Z,981.40
2022-11-22T11:20:16.270Z,981.22
2022-11-22T11:25:20.410Z,981.19
2022-11-22T11:30:24.598Z,981.07
2022-11-22T11:35:28.720Z,981.14
2022-11-22T11:40:32.899Z,980.98
2022-11-22T11:45:37.073Z,981.02
2022-11-22T11:50:41.206Z,980.96
2022-11-22T11:55:45.351Z,981.18
2022-11-22T12:00:49.543Z,981.06
2022-11-22T12:05:53.716Z,981.10
2022-11-22T12:10:57.853Z,981.22
2022-11-22T12:16:02.039Z,981.57
2022-11-22T12:21:06.215Z,981.67
2022-11-22T12:26:10.336Z,981.62
2022-11-22T12:31:15.425Z,981.92
2022-11-22T12:36:18.673Z,982.00
2022-11-22T12:41:22.815Z,982.00
2022-11-22T12:46:27.014Z,981.88
2022-11-22T12:51:31.159Z,982.01
2022-11-22T12:56:35.329Z,981.99
2022-11-22T13:01:39.552Z,981.93
2022-11-22T13:06:43.636Z,981.93
2022-11-22T13:11:47.792Z,981.73
2022-11-22T13:16:51.959Z,981.76
2022-11-22T13:21:56.150Z,981.84
2022-11-22T13:27:00.326Z,981.90
2022-11-22T13:32:04.478Z,981.64
2022-11-22T13:37:08.633Z,981.44
2022-11-22T13:42:12.792Z,981.48
2022-11-22T13:47:16.946Z,981.51
2022-11-22T13:52:21.099Z,981.45
2022-11-22T13:57:25.257Z,981.50
2022-11-22T14:02:29.469Z,981.47
2022-11-22T14:07:33.671Z,981.27
2022-11-22T14:12:37.741Z,981.20
2022-11-22T14:17:42.277Z,981.29
2022-11-22T14:22:44.186Z,981.34
2022-11-22T14:27:48.340Z,981.23
2022-11-22T14:32:52.506Z,981.26
2022-11-22T14:37:56.653Z,981.32
2022-11-22T14:43:00.852Z,981.20
2022-11-22T14:48:05.003Z,981.02
2022-11-22T14:53:07.268Z,980.97
2022-11-22T14:58:11.429Z,980.95
2022-11-22T15:03:15.593Z,980.78
2022-11-22T15:09:14.331Z,980.72
2022-11-22T15:13:23.931Z,980.66
2022-11-22T15:59:01.395Z,979.91
2022-11-22T16:04:05.538Z,979.81
2022-11-22T16:09:09.723Z,979.75
2022-11-22T16:14:13.865Z,979.71
2022-11-22T16:19:18.048Z,979.70
2022-11-22T16:24:22.201Z,979.65
2022-11-22T16:29:26.336Z,979.75
2022-11-22T16:34:30.510Z,979.62
2022-11-22T16:39:34.819Z,979.59
2022-11-22T16:44:38.826Z,979.61
2022-11-22T16:49:43.021Z,979.58
2022-11-22T16:54:47.140Z,979.45
2022-11-22T16:59:51.325Z,979.26
2022-11-22T17:04:55.474Z,979.28
2022-11-22T17:09:59.676Z,979.25
2022-11-22T17:15:03.807Z,979.06
2022-11-22T17:20:08.004Z,978.87
2022-11-22T17:25:12.136Z,978.59
2022-11-22T17:30:16.314Z,978.26
2022-11-22T17:35:20.467Z,977.95
2022-11-22T17:40:24.600Z,978.01
2022-11-22T17:45:28.798Z,978.02
2022-11-22T17:50:32.944Z,977.94
2022-11-22T17:56:08.565Z,977.96
2022-11-22T18:00:41.299Z,977.90
2022-11-22T18:05:45.434Z,977.69
2022-11-22T18:10:49.608Z,977.71
2022-11-22T18:15:57.340Z,977.63
2022-11-22T18:20:57.906Z,977.50
2022-11-22T18:26:38.227Z,977.41
2022-11-22T18:31:06.275Z,977.37
2022-11-22T18:36:49.463Z,977.17
2022-11-22T18:41:14.592Z,977.09
2022-11-22T18:46:19.012Z,977.02
2022-11-22T18:51:22.929Z,976.99
2022-11-22T18:56:27.083Z,976.86
2022-11-22T19:01:31.286Z,976.74
2022-11-22T19:06:35.452Z,976.76
2022-11-22T19:11:39.558Z,976.74
2022-11-22T19:16:43.706Z,976.84
2022-11-22T19:21:47.921Z,976.76
2022-11-22T19:26:52.051Z,976.72
2022-11-22T19:31:56.157Z,976.63
2022-11-22T19:37:00.344Z,976.62
2022-11-22T19:42:04.537Z,976.56
2022-11-22T19:47:08.680Z,976.37
2022-11-22T19:52:12.851Z,976.42
2022-11-22T19:57:17.010Z,976.38
2022-11-22T20:02:21.175Z,976.40
2022-11-22T20:07:25.380Z,976.45
2022-11-22T20:12:29.475Z,976.35
2022-11-22T20:17:33.686Z,976.27
2022-11-22T20:22:35.915Z,976.30
2022-11-22T20:27:40.061Z,976.37
2022-11-22T20:32:44.264Z,976.37
2022-11-22T20:37:48.395Z,976.48
2022-11-22T20:42:52.607Z,976.53
2022-11-22T20:47:56.730Z,976.64
2022-11-22T20:53:00.915Z,976.66
2022-11-22T20:58:05.045Z,976.75
2022-11-22T21:03:09.215Z,976.80
2022-11-22T21:08:13.380Z,976.87
2022-11-22T21:13:17.549Z,976.97
2022-11-22T21:18:25.678Z,977.20
2022-11-22T21:23:25.895Z,977.28
2022-11-22T21:28:30.027Z,977.42
2022-11-22T21:33:34.215Z,977.57
2022-11-22T21:38:38.364Z,977.68
2022-11-22T21:43:47.384Z,977.92
2022-11-22T21:48:46.654Z,977.96
2022-11-22T21:53:50.848Z,978.09
2022-11-22T21:58:55.001Z,978.17
2022-11-22T22:03:59.150Z,978.17
2022-11-22T22:09:03.321Z,978.11
2022-11-22T22:14:07.481Z,978.14
2022-11-22T22:19:11.669Z,978.12
2022-11-22T22:24:15.811Z,978.14
2022-11-22T22:29:19.968Z,978.03
2022-11-22T22:34:24.161Z,978.02
2022-11-22T22:39:28.562Z,978.02
2022-11-22T22:44:32.528Z,977.98
2022-11-22T22:49:36.646Z,977.98
2022-11-22T22:54:40.804Z,977.91
2022-11-22T22:59:44.939Z,977.90
2022-11-22T23:04:49.088Z,977.90
2022-11-22T23:09:53.296Z,977.75
2022-11-22T23:14:57.454Z,977.76
2022-11-22T23:20:01.591Z,977.69
2022-11-22T23:25:05.771Z,977.52
2022-11-22T23:30:09.932Z,977.44
2022-11-22T23:35:14.092Z,977.51
2022-11-22T23:40:18.273Z,977.48
2022-11-22T23:45:22.431Z,977.39
2022-11-22T23:50:26.564Z,977.48
2022-11-22T23:55:30.775Z,977.52
